sensor_id;sensor_type;location;lat;lon;timestamp;P1;durP1;ratioP1;P2;durP2;ratioP2
53775;SDS011;44276;49.534;6.378;2023-03-21T00:00:55;10.25;;;5.00;;
53775;SDS011;44276;49.534;6.378;2023-03-21T00:03:25;13.95;;;6.47;;
53775;SDS011;44276;49.534;6.378;2023-03-21T00:05:56;8.57;;;4.72;;
53775;SDS011;44276;49.534;6.378;2023-03-21T00:08:24;10.52;;;5.38;;
53775;SDS011;44276;49.534;6.378;2023-03-21T00:10:56;13.98;;;4.95;;
53775;SDS011;44276;49.534;6.378;2023-03-21T00:13:26;11.20;;;4.82;;
53775;SDS011;44276;49.534;6.378;2023-03-21T00:16:03;8.25;;;3.92;;
53775;SDS011;44276;49.534;6.378;2023-03-21T00:18:53;7.97;;;4.78;;
53775;SDS011;44276;49.534;6.378;2023-03-21T00:21:21;9.73;;;4.75;;
53775;SDS011;44276;49.534;6.378;2023-03-21T00:24:13;10.23;;;4.97;;
53775;SDS011;44276;49.534;6.378;2023-03-21T00:26:41;9.05;;;4.95;;
53775;SDS011;44276;49.534;6.378;2023-03-21T00:29:10;7.97;;;4.15;;
53775;SDS011;44276;49.534;6.378;2023-03-21T00:31:39;9.63;;;3.55;;
53775;SDS011;44276;49.534;6.378;2023-03-21T00:34:08;5.93;;;3.42;;
53775;SDS011;44276;49.534;6.378;2023-03-21T00:36:36;8.52;;;4.35;;
53775;SDS011;44276;49.534;6.378;2023-03-21T00:39:04;9.23;;;4.18;;
53775;SDS011;44276;49.534;6.378;2023-03-21T00:41:32;6.68;;;4.35;;
53775;SDS011;44276;49.534;6.378;2023-03-21T00:44:08;11.85;;;4.82;;
53775;SDS011;44276;49.534;6.378;2023-03-21T00:46:42;9.70;;;6.13;;
53775;SDS011;44276;49.534;6.378;2023-03-21T00:49:31;11.18;;;5.28;;
53775;SDS011;44276;49.534;6.378;2023-03-21T00:52:04;13.60;;;5.07;;
53775;SDS011;44276;49.534;6.378;2023-03-21T00:54:49;7.85;;;5.43;;
53775;SDS011;44276;49.534;6.378;2023-03-21T00:57:18;9.48;;;4.78;;
53775;SDS011;44276;49.534;6.378;2023-03-21T01:00:01;14.55;;;5.50;;
53775;SDS011;44276;49.534;6.378;2023-03-21T01:02:34;12.10;;;4.88;;
53775;SDS011;44276;49.534;6.378;2023-03-21T01:05:03;12.38;;;5.13;;
53775;SDS011;44276;49.534;6.378;2023-03-21T01:07:32;9.40;;;5.13;;
53775;SDS011;44276;49.534;6.378;2023-03-21T01:10:01;14.85;;;5.65;;
53775;SDS011;44276;49.534;6.378;2023-03-21T01:12:30;13.05;;;4.88;;
53775;SDS011;44276;49.534;6.378;2023-03-21T01:14:58;7.32;;;4.68;;
53775;SDS011;44276;49.534;6.378;2023-03-21T01:17:26;16.02;;;5.43;;
53775;SDS011;44276;49.534;6.378;2023-03-21T01:19:56;11.30;;;6.13;;
53775;SDS011;44276;49.534;6.378;2023-03-21T01:22:24;9.93;;;4.57;;
53775;SDS011;44276;49.534;6.378;2023-03-21T01:24:53;10.38;;;4.53;;
53775;SDS011;44276;49.534;6.378;2023-03-21T01:27:37;9.75;;;5.28;;
53775;SDS011;44276;49.534;6.378;2023-03-21T01:30:06;13.50;;;5.70;;
53775;SDS011;44276;49.534;6.378;2023-03-21T01:32:45;11.45;;;6.13;;
53775;SDS011;44276;49.534;6.378;2023-03-21T01:35:15;9.82;;;4.50;;
53775;SDS011;44276;49.534;6.378;2023-03-21T01:37:44;6.90;;;4.32;;
53775;SDS011;44276;49.534;6.378;2023-03-21T01:40:14;13.18;;;5.30;;
53775;SDS011;44276;49.534;6.378;2023-03-21T01:42:45;15.32;;;5.00;;
53775;SDS011;44276;49.534;6.378;2023-03-21T01:48:49;7.68;;;4.07;;
53775;SDS011;44276;49.534;6.378;2023-03-21T01:51:25;8.05;;;5.28;;
53775;SDS011;44276;49.534;6.378;2023-03-21T01:53:55;12.77;;;5.20;;
53775;SDS011;44276;49.534;6.378;2023-03-21T01:56:27;11.35;;;4.60;;
53775;SDS011;44276;49.534;6.378;2023-03-21T01:59:00;10.32;;;4.60;;
53775;SDS011;44276;49.534;6.378;2023-03-21T02:01:37;14.15;;;5.35;;
53775;SDS011;44276;49.534;6.378;2023-03-21T02:04:09;9.32;;;5.38;;
53775;SDS011;44276;49.534;6.378;2023-03-21T02:06:41;10.02;;;5.03;;
53775;SDS011;44276;49.534;6.378;2023-03-21T02:11:49;9.10;;;4.75;;
53775;SDS011;44276;49.534;6.378;2023-03-21T02:14:18;8.35;;;4.72;;
53775;SDS011;44276;49.534;6.378;2023-03-21T02:16:57;11.88;;;6.20;;
53775;SDS011;44276;49.534;6.378;2023-03-21T02:19:42;12.57;;;5.00;;
53775;SDS011;44276;49.534;6.378;2023-03-21T02:22:59;9.70;;;4.65;;
53775;SDS011;44276;49.534;6.378;2023-03-21T02:29:42;15.00;;;6.25;;
53775;SDS011;44276;49.534;6.378;2023-03-21T02:32:58;8.70;;;4.25;;
53775;SDS011;44276;49.534;6.378;2023-03-21T02:36:25;8.50;;;4.95;;
53775;SDS011;44276;49.534;6.378;2023-03-21T02:39:09;15.30;;;6.65;;
53775;SDS011;44276;49.534;6.378;2023-03-21T02:44:17;8.25;;;4.28;;
53775;SDS011;44276;49.534;6.378;2023-03-21T02:46:53;15.63;;;4.70;;
53775;SDS011;44276;49.534;6.378;2023-03-21T02:49:33;8.85;;;3.78;;
53775;SDS011;44276;49.534;6.378;2023-03-21T02:52:08;10.18;;;4.72;;
53775;SDS011;44276;49.534;6.378;2023-03-21T02:55:02;10.88;;;4.60;;
53775;SDS011;44276;49.534;6.378;2023-03-21T02:57:39;7.10;;;3.53;;
53775;SDS011;44276;49.534;6.378;2023-03-21T03:00:12;10.32;;;3.53;;
53775;SDS011;44276;49.534;6.378;2023-03-21T03:02:48;12.27;;;3.42;;
53775;SDS011;44276;49.534;6.378;2023-03-21T03:05:34;13.27;;;5.38;;
53775;SDS011;44276;49.534;6.378;2023-03-21T03:08:16;14.45;;;4.65;;
53775;SDS011;44276;49.534;6.378;2023-03-21T03:11:18;6.75;;;3.25;;
53775;SDS011;44276;49.534;6.378;2023-03-21T03:13:57;7.10;;;3.75;;
53775;SDS011;44276;49.534;6.378;2023-03-21T03:17:15;8.50;;;3.83;;
53775;SDS011;44276;49.534;6.378;2023-03-21T03:19:58;11.38;;;4.00;;
53775;SDS011;44276;49.534;6.378;2023-03-21T03:22:45;8.73;;;4.07;;
53775;SDS011;44276;49.534;6.378;2023-03-21T03:25:25;6.68;;;3.00;;
53775;SDS011;44276;49.534;6.378;2023-03-21T03:28:10;8.82;;;3.53;;
53775;SDS011;44276;49.534;6.378;2023-03-21T03:30:43;10.10;;;4.28;;
53775;SDS011;44276;49.534;6.378;2023-03-21T03:33:33;5.10;;;2.92;;
53775;SDS011;44276;49.534;6.378;2023-03-21T03:36:07;5.00;;;2.92;;
53775;SDS011;44276;49.534;6.378;2023-03-21T03:38:55;5.85;;;3.40;;
53775;SDS011;44276;49.534;6.378;2023-03-21T03:41:25;11.40;;;4.68;;
53775;SDS011;44276;49.534;6.378;2023-03-21T03:44:18;8.60;;;4.90;;
53775;SDS011;44276;49.534;6.378;2023-03-21T03:46:47;9.73;;;4.30;;
53775;SDS011;44276;49.534;6.378;2023-03-21T03:49:26;7.82;;;3.78;;
53775;SDS011;44276;49.534;6.378;2023-03-21T03:52:04;10.15;;;3.92;;
53775;SDS011;44276;49.534;6.378;2023-03-21T03:54:39;4.95;;;3.13;;
53775;SDS011;44276;49.534;6.378;2023-03-21T03:57:12;9.65;;;4.80;;
53775;SDS011;44276;49.534;6.378;2023-03-21T03:59:44;5.22;;;2.80;;
53775;SDS011;44276;49.534;6.378;2023-03-21T04:02:13;7.18;;;3.83;;
53775;SDS011;44276;49.534;6.378;2023-03-21T04:04:42;10.90;;;4.47;;
53775;SDS011;44276;49.534;6.378;2023-03-21T04:07:10;9.73;;;6.03;;
53775;SDS011;44276;49.534;6.378;2023-03-21T04:09:39;6.40;;;3.80;;
53775;SDS011;44276;49.534;6.378;2023-03-21T04:12:10;12.80;;;4.72;;
53775;SDS011;44276;49.534;6.378;2023-03-21T04:14:39;6.78;;;3.80;;
53775;SDS011;44276;49.534;6.378;2023-03-21T04:17:14;17.95;;;3.95;;
53775;SDS011;44276;49.534;6.378;2023-03-21T04:19:43;12.00;;;3.53;;
53775;SDS011;44276;49.534;6.378;2023-03-21T04:22:11;8.30;;;3.70;;
53775;SDS011;44276;49.534;6.378;2023-03-21T04:24:40;10.20;;;4.45;;
53775;SDS011;44276;49.534;6.378;2023-03-21T04:27:09;10.95;;;4.28;;
53775;SDS011;44276;49.534;6.378;2023-03-21T04:29:38;9.25;;;4.97;;
53775;SDS011;44276;49.534;6.378;2023-03-21T04:32:07;6.15;;;3.70;;
53775;SDS011;44276;49.534;6.378;2023-03-21T04:34:46;7.15;;;4.30;;
53775;SDS011;44276;49.534;6.378;2023-03-21T04:37:15;7.70;;;3.10;;
53775;SDS011;44276;49.534;6.378;2023-03-21T04:39:44;7.65;;;4.40;;
53775;SDS011;44276;49.534;6.378;2023-03-21T04:42:13;7.82;;;4.20;;
53775;SDS011;44276;49.534;6.378;2023-03-21T04:44:43;8.82;;;3.72;;
53775;SDS011;44276;49.534;6.378;2023-03-21T04:47:11;8.73;;;4.97;;
53775;SDS011;44276;49.534;6.378;2023-03-21T04:49:41;10.57;;;3.85;;
53775;SDS011;44276;49.534;6.378;2023-03-21T04:52:10;5.25;;;3.78;;
53775;SDS011;44276;49.534;6.378;2023-03-21T04:54:38;10.05;;;4.10;;
53775;SDS011;44276;49.534;6.378;2023-03-21T04:57:07;4.95;;;3.28;;
53775;SDS011;44276;49.534;6.378;2023-03-21T04:59:35;11.85;;;4.63;;
53775;SDS011;44276;49.534;6.378;2023-03-21T05:02:03;8.65;;;3.47;;
53775;SDS011;44276;49.534;6.378;2023-03-21T05:04:32;9.88;;;4.05;;
53775;SDS011;44276;49.534;6.378;2023-03-21T05:07:00;7.47;;;3.63;;
53775;SDS011;44276;49.534;6.378;2023-03-21T05:09:30;8.52;;;4.15;;
53775;SDS011;44276;49.534;6.378;2023-03-21T05:11:58;11.35;;;3.28;;
53775;SDS011;44276;49.534;6.378;2023-03-21T05:14:26;8.07;;;3.90;;
53775;SDS011;44276;49.534;6.378;2023-03-21T05:16:55;10.30;;;4.38;;
53775;SDS011;44276;49.534;6.378;2023-03-21T05:19:25;10.25;;;4.38;;
53775;SDS011;44276;49.534;6.378;2023-03-21T05:22:01;8.55;;;4.47;;
53775;SDS011;44276;49.534;6.378;2023-03-21T05:24:36;9.70;;;3.55;;
53775;SDS011;44276;49.534;6.378;2023-03-21T05:27:07;10.52;;;5.07;;
53775;SDS011;44276;49.534;6.378;2023-03-21T05:29:36;8.77;;;4.60;;
53775;SDS011;44276;49.534;6.378;2023-03-21T05:32:05;5.53;;;3.72;;
53775;SDS011;44276;49.534;6.378;2023-03-21T05:34:34;13.95;;;4.53;;
53775;SDS011;44276;49.534;6.378;2023-03-21T05:37:04;10.57;;;3.88;;
53775;SDS011;44276;49.534;6.378;2023-03-21T05:39:46;9.50;;;5.15;;
53775;SDS011;44276;49.534;6.378;2023-03-21T05:42:18;6.07;;;3.65;;
53775;SDS011;44276;49.534;6.378;2023-03-21T05:45:13;8.07;;;4.10;;
53775;SDS011;44276;49.534;6.378;2023-03-21T05:47:45;9.20;;;4.68;;
53775;SDS011;44276;49.534;6.378;2023-03-21T05:50:14;10.02;;;3.97;;
53775;SDS011;44276;49.534;6.378;2023-03-21T05:52:42;7.82;;;4.15;;
53775;SDS011;44276;49.534;6.378;2023-03-21T05:55:12;9.80;;;4.53;;
53775;SDS011;44276;49.534;6.378;2023-03-21T05:57:40;6.43;;;3.22;;
53775;SDS011;44276;49.534;6.378;2023-03-21T06:00:09;8.93;;;4.22;;
53775;SDS011;44276;49.534;6.378;2023-03-21T06:02:39;6.88;;;3.45;;
53775;SDS011;44276;49.534;6.378;2023-03-21T06:05:07;11.68;;;4.60;;
53775;SDS011;44276;49.534;6.378;2023-03-21T06:07:36;7.72;;;3.45;;
53775;SDS011;44276;49.534;6.378;2023-03-21T06:10:05;7.88;;;2.75;;
53775;SDS011;44276;49.534;6.378;2023-03-21T06:12:35;7.43;;;2.83;;
53775;SDS011;44276;49.534;6.378;2023-03-21T06:15:04;10.20;;;5.70;;
53775;SDS011;44276;49.534;6.378;2023-03-21T06:17:34;9.77;;;3.42;;
53775;SDS011;44276;49.534;6.378;2023-03-21T06:20:03;10.18;;;3.35;;
53775;SDS011;44276;49.534;6.378;2023-03-21T06:22:34;9.27;;;3.80;;
53775;SDS011;44276;49.534;6.378;2023-03-21T06:25:05;7.85;;;4.22;;
53775;SDS011;44276;49.534;6.378;2023-03-21T06:27:36;8.10;;;3.55;;
53775;SDS011;44276;49.534;6.378;2023-03-21T06:30:05;5.18;;;3.13;;
53775;SDS011;44276;49.534;6.378;2023-03-21T06:32:36;23.73;;;3.92;;
53775;SDS011;44276;49.534;6.378;2023-03-21T06:35:05;12.57;;;3.50;;
53775;SDS011;44276;49.534;6.378;2023-03-21T06:37:34;5.68;;;3.45;;
53775;SDS011;44276;49.534;6.378;2023-03-21T06:40:03;9.65;;;3.65;;
53775;SDS011;44276;49.534;6.378;2023-03-21T06:42:36;9.63;;;3.90;;
53775;SDS011;44276;49.534;6.378;2023-03-21T06:45:05;5.55;;;3.60;;
53775;SDS011;44276;49.534;6.378;2023-03-21T06:47:34;10.43;;;3.60;;
53775;SDS011;44276;49.534;6.378;2023-03-21T06:50:03;5.80;;;2.95;;
53775;SDS011;44276;49.534;6.378;2023-03-21T06:52:32;8.63;;;3.90;;
53775;SDS011;44276;49.534;6.378;2023-03-21T06:55:02;4.80;;;2.90;;
53775;SDS011;44276;49.534;6.378;2023-03-21T06:57:30;6.97;;;4.43;;
53775;SDS011;44276;49.534;6.378;2023-03-21T07:00:00;7.57;;;3.20;;
53775;SDS011;44276;49.534;6.378;2023-03-21T07:02:30;8.38;;;3.95;;
53775;SDS011;44276;49.534;6.378;2023-03-21T07:04:58;11.10;;;4.25;;
53775;SDS011;44276;49.534;6.378;2023-03-21T07:07:27;5.47;;;3.72;;
53775;SDS011;44276;49.534;6.378;2023-03-21T07:09:55;6.35;;;4.07;;
53775;SDS011;44276;49.534;6.378;2023-03-21T07:12:23;6.13;;;4.07;;
53775;SDS011;44276;49.534;6.378;2023-03-21T07:14:52;5.60;;;3.83;;
53775;SDS011;44276;49.534;6.378;2023-03-21T07:17:22;10.95;;;3.90;;
53775;SDS011;44276;49.534;6.378;2023-03-21T07:19:50;7.25;;;4.03;;
53775;SDS011;44276;49.534;6.378;2023-03-21T07:22:18;10.43;;;3.60;;
53775;SDS011;44276;49.534;6.378;2023-03-21T07:24:46;4.57;;;3.20;;
53775;SDS011;44276;49.534;6.378;2023-03-21T07:27:29;10.00;;;3.83;;
53775;SDS011;44276;49.534;6.378;2023-03-21T07:29:58;4.70;;;3.63;;
53775;SDS011;44276;49.534;6.378;2023-03-21T07:32:27;8.13;;;4.43;;
53775;SDS011;44276;49.534;6.378;2023-03-21T07:34:59;6.90;;;3.10;;
53775;SDS011;44276;49.534;6.378;2023-03-21T07:37:27;7.00;;;3.80;;
53775;SDS011;44276;49.534;6.378;2023-03-21T07:39:55;6.32;;;3.35;;
53775;SDS011;44276;49.534;6.378;2023-03-21T07:42:23;7.40;;;3.47;;
53775;SDS011;44276;49.534;6.378;2023-03-21T07:44:52;5.82;;;3.78;;
53775;SDS011;44276;49.534;6.378;2023-03-21T07:47:20;7.68;;;4.40;;
53775;SDS011;44276;49.534;6.378;2023-03-21T07:49:49;5.70;;;3.85;;
53775;SDS011;44276;49.534;6.378;2023-03-21T07:52:18;9.07;;;3.90;;
53775;SDS011;44276;49.534;6.378;2023-03-21T07:54:46;7.13;;;3.85;;
53775;SDS011;44276;49.534;6.378;2023-03-21T07:57:14;6.43;;;4.53;;
53775;SDS011;44276;49.534;6.378;2023-03-21T07:59:42;9.98;;;4.47;;
53775;SDS011;44276;49.534;6.378;2023-03-21T08:02:12;7.00;;;3.78;;
53775;SDS011;44276;49.534;6.378;2023-03-21T08:04:42;11.88;;;4.85;;
53775;SDS011;44276;49.534;6.378;2023-03-21T08:07:18;6.95;;;4.18;;
53775;SDS011;44276;49.534;6.378;2023-03-21T08:09:48;8.40;;;4.68;;
53775;SDS011;44276;49.534;6.378;2023-03-21T08:12:17;9.70;;;5.28;;
53775;SDS011;44276;49.534;6.378;2023-03-21T08:14:46;12.75;;;6.10;;
53775;SDS011;44276;49.534;6.378;2023-03-21T08:17:14;12.35;;;4.68;;
53775;SDS011;44276;49.534;6.378;2023-03-21T08:19:42;11.82;;;6.00;;
53775;SDS011;44276;49.534;6.378;2023-03-21T08:22:11;7.53;;;4.35;;
53775;SDS011;44276;49.534;6.378;2023-03-21T08:24:40;9.27;;;5.18;;
53775;SDS011;44276;49.534;6.378;2023-03-21T08:27:10;11.25;;;5.68;;
53775;SDS011;44276;49.534;6.378;2023-03-21T08:29:39;10.50;;;6.03;;
53775;SDS011;44276;49.534;6.378;2023-03-21T08:32:07;13.63;;;5.43;;
53775;SDS011;44276;49.534;6.378;2023-03-21T08:34:36;11.10;;;5.47;;
53775;SDS011;44276;49.534;6.378;2023-03-21T08:37:04;10.32;;;5.05;;
53775;SDS011;44276;49.534;6.378;2023-03-21T08:39:35;7.80;;;4.50;;
53775;SDS011;44276;49.534;6.378;2023-03-21T08:42:05;12.27;;;5.70;;
53775;SDS011;44276;49.534;6.378;2023-03-21T08:44:33;21.30;;;5.63;;
53775;SDS011;44276;49.534;6.378;2023-03-21T08:47:04;9.82;;;5.57;;
53775;SDS011;44276;49.534;6.378;2023-03-21T08:49:33;14.30;;;6.18;;
53775;SDS011;44276;49.534;6.378;2023-03-21T08:52:02;13.45;;;6.85;;
53775;SDS011;44276;49.534;6.378;2023-03-21T08:54:32;20.92;;;6.30;;
53775;SDS011;44276;49.534;6.378;2023-03-21T08:57:00;11.23;;;6.00;;
53775;SDS011;44276;49.534;6.378;2023-03-21T08:59:30;11.73;;;6.35;;
53775;SDS011;44276;49.534;6.378;2023-03-21T09:01:58;9.85;;;5.72;;
53775;SDS011;44276;49.534;6.378;2023-03-21T09:04:26;14.25;;;6.95;;
53775;SDS011;44276;49.534;6.378;2023-03-21T09:06:56;13.20;;;6.03;;
53775;SDS011;44276;49.534;6.378;2023-03-21T09:09:26;15.85;;;8.23;;
53775;SDS011;44276;49.534;6.378;2023-03-21T09:11:54;16.50;;;6.75;;
53775;SDS011;44276;49.534;6.378;2023-03-21T09:14:22;8.65;;;5.28;;
53775;SDS011;44276;49.534;6.378;2023-03-21T09:16:55;9.00;;;5.60;;
53775;SDS011;44276;49.534;6.378;2023-03-21T09:19:23;9.50;;;4.93;;
53775;SDS011;44276;49.534;6.378;2023-03-21T09:21:53;13.70;;;5.78;;
53775;SDS011;44276;49.534;6.378;2023-03-21T09:24:21;9.82;;;5.57;;
53775;SDS011;44276;49.534;6.378;2023-03-21T09:26:49;14.10;;;4.90;;
53775;SDS011;44276;49.534;6.378;2023-03-21T09:29:17;9.85;;;4.85;;
53775;SDS011;44276;49.534;6.378;2023-03-21T09:31:46;8.77;;;5.78;;
53775;SDS011;44276;49.534;6.378;2023-03-21T09:34:16;8.63;;;4.95;;
53775;SDS011;44276;49.534;6.378;2023-03-21T09:36:44;12.00;;;5.65;;
53775;SDS011;44276;49.534;6.378;2023-03-21T09:39:13;11.02;;;5.25;;
53775;SDS011;44276;49.534;6.378;2023-03-21T09:41:49;14.93;;;5.65;;
53775;SDS011;44276;49.534;6.378;2023-03-21T09:44:38;10.30;;;4.30;;
53775;SDS011;44276;49.534;6.378;2023-03-21T09:47:19;12.45;;;4.53;;
53775;SDS011;44276;49.534;6.378;2023-03-21T09:49:53;13.57;;;5.10;;
53775;SDS011;44276;49.534;6.378;2023-03-21T09:52:41;7.80;;;5.75;;
53775;SDS011;44276;49.534;6.378;2023-03-21T09:55:15;7.85;;;4.13;;
53775;SDS011;44276;49.534;6.378;2023-03-21T09:57:49;12.30;;;6.00;;
53775;SDS011;44276;49.534;6.378;2023-03-21T10:00:32;7.30;;;4.75;;
53775;SDS011;44276;49.534;6.378;2023-03-21T10:03:19;9.15;;;4.70;;
53775;SDS011;44276;49.534;6.378;2023-03-21T10:05:53;9.93;;;5.20;;
53775;SDS011;44276;49.534;6.378;2023-03-21T10:08:25;10.63;;;4.95;;
53775;SDS011;44276;49.534;6.378;2023-03-21T10:11:00;9.40;;;4.32;;
53775;SDS011;44276;49.534;6.378;2023-03-21T10:13:38;7.65;;;4.47;;
53775;SDS011;44276;49.534;6.378;2023-03-21T10:16:13;12.10;;;5.47;;
53775;SDS011;44276;49.534;6.378;2023-03-21T10:18:44;11.60;;;4.03;;
53775;SDS011;44276;49.534;6.378;2023-03-21T10:21:19;12.50;;;5.00;;
53775;SDS011;44276;49.534;6.378;2023-03-21T10:24:10;10.68;;;4.95;;
53775;SDS011;44276;49.534;6.378;2023-03-21T10:26:42;10.27;;;5.07;;
53775;SDS011;44276;49.534;6.378;2023-03-21T10:29:11;12.35;;;6.25;;
53775;SDS011;44276;49.534;6.378;2023-03-21T10:31:43;9.77;;;5.90;;
53775;SDS011;44276;49.534;6.378;2023-03-21T10:34:14;13.88;;;6.20;;
53775;SDS011;44276;49.534;6.378;2023-03-21T10:36:48;9.55;;;5.43;;
53775;SDS011;44276;49.534;6.378;2023-03-21T10:39:19;11.43;;;5.85;;
53775;SDS011;44276;49.534;6.378;2023-03-21T10:41:54;12.57;;;5.35;;
53775;SDS011;44276;49.534;6.378;2023-03-21T10:44:22;9.85;;;5.40;;
53775;SDS011;44276;49.534;6.378;2023-03-21T10:46:57;17.95;;;7.90;;
53775;SDS011;44276;49.534;6.378;2023-03-21T10:49:32;14.43;;;6.53;;
53775;SDS011;44276;49.534;6.378;2023-03-21T10:52:16;7.88;;;4.70;;
53775;SDS011;44276;49.534;6.378;2023-03-21T10:54:48;10.48;;;5.63;;
53775;SDS011;44276;49.534;6.378;2023-03-21T10:57:34;8.88;;;5.15;;
53775;SDS011;44276;49.534;6.378;2023-03-21T11:00:04;7.93;;;4.20;;
53775;SDS011;44276;49.534;6.378;2023-03-21T11:02:45;8.27;;;4.35;;
53775;SDS011;44276;49.534;6.378;2023-03-21T11:05:18;9.63;;;4.00;;
53775;SDS011;44276;49.534;6.378;2023-03-21T11:07:56;8.40;;;3.80;;
53775;SDS011;44276;49.534;6.378;2023-03-21T11:10:29;4.25;;;3.03;;
53775;SDS011;44276;49.534;6.378;2023-03-21T11:13:01;5.28;;;2.88;;
53775;SDS011;44276;49.534;6.378;2023-03-21T11:15:37;6.65;;;3.13;;
53775;SDS011;44276;49.534;6.378;2023-03-21T11:18:19;5.97;;;2.75;;
53775;SDS011;44276;49.534;6.378;2023-03-21T11:20:51;7.03;;;3.13;;
53775;SDS011;44276;49.534;6.378;2023-03-21T11:23:25;7.53;;;3.15;;
53775;SDS011;44276;49.534;6.378;2023-03-21T11:25:59;7.72;;;2.50;;
53775;SDS011;44276;49.534;6.378;2023-03-21T11:28:31;9.38;;;3.88;;
53775;SDS011;44276;49.534;6.378;2023-03-21T11:31:04;5.25;;;2.88;;
53775;SDS011;44276;49.534;6.378;2023-03-21T11:33:35;7.88;;;2.97;;
53775;SDS011;44276;49.534;6.378;2023-03-21T11:36:22;8.32;;;3.17;;
53775;SDS011;44276;49.534;6.378;2023-03-21T11:39:11;7.75;;;3.03;;
53775;SDS011;44276;49.534;6.378;2023-03-21T11:41:54;8.57;;;3.92;;
53775;SDS011;44276;49.534;6.378;2023-03-21T11:44:24;9.32;;;3.95;;
53775;SDS011;44276;49.534;6.378;2023-03-21T11:46:56;6.95;;;3.97;;
53775;SDS011;44276;49.534;6.378;2023-03-21T11:49:25;8.60;;;3.85;;
53775;SDS011;44276;49.534;6.378;2023-03-21T11:51:58;5.32;;;3.20;;
53775;SDS011;44276;49.534;6.378;2023-03-21T11:58:10;10.70;;;4.63;;
53775;SDS011;44276;49.534;6.378;2023-03-21T12:00:59;7.00;;;3.65;;
53775;SDS011;44276;49.534;6.378;2023-03-21T12:03:58;6.95;;;3.67;;
53775;SDS011;44276;49.534;6.378;2023-03-21T12:07:29;6.78;;;3.80;;
53775;SDS011;44276;49.534;6.378;2023-03-21T12:10:28;7.18;;;4.72;;
53775;SDS011;44276;49.534;6.378;2023-03-21T12:13:06;5.95;;;3.80;;
53775;SDS011;44276;49.534;6.378;2023-03-21T12:15:57;10.90;;;4.32;;
53775;SDS011;44276;49.534;6.378;2023-03-21T12:18:45;8.15;;;4.43;;
53775;SDS011;44276;49.534;6.378;2023-03-21T12:24:35;7.05;;;4.45;;
53775;SDS011;44276;49.534;6.378;2023-03-21T12:27:24;7.55;;;3.53;;
53775;SDS011;44276;49.534;6.378;2023-03-21T12:30:12;6.50;;;4.05;;
53775;SDS011;44276;49.534;6.378;2023-03-21T12:33:04;6.60;;;3.67;;
53775;SDS011;44276;49.534;6.378;2023-03-21T12:35:54;6.55;;;3.40;;
53775;SDS011;44276;49.534;6.378;2023-03-21T12:38:46;5.88;;;3.85;;
53775;SDS011;44276;49.534;6.378;2023-03-21T12:41:27;4.63;;;3.35;;
53775;SDS011;44276;49.534;6.378;2023-03-21T12:44:07;8.38;;;3.88;;
53775;SDS011;44276;49.534;6.378;2023-03-21T12:46:42;10.97;;;4.43;;
53775;SDS011;44276;49.534;6.378;2023-03-21T12:49:18;7.78;;;4.00;;
53775;SDS011;44276;49.534;6.378;2023-03-21T12:51:58;7.03;;;4.25;;
53775;SDS011;44276;49.534;6.378;2023-03-21T12:54:34;8.20;;;4.03;;
53775;SDS011;44276;49.534;6.378;2023-03-21T12:57:09;7.88;;;4.68;;
53775;SDS011;44276;49.534;6.378;2023-03-21T12:59:47;10.43;;;5.05;;
53775;SDS011;44276;49.534;6.378;2023-03-21T13:02:26;8.13;;;3.78;;
53775;SDS011;44276;49.534;6.378;2023-03-21T13:05:02;9.23;;;4.82;;
53775;SDS011;44276;49.534;6.378;2023-03-21T13:07:44;7.55;;;3.80;;
53775;SDS011;44276;49.534;6.378;2023-03-21T13:10:19;11.55;;;4.70;;
53775;SDS011;44276;49.534;6.378;2023-03-21T13:12:57;8.45;;;4.53;;
53775;SDS011;44276;49.534;6.378;2023-03-21T13:18:56;6.03;;;4.07;;
53775;SDS011;44276;49.534;6.378;2023-03-21T13:21:37;5.47;;;4.15;;
53775;SDS011;44276;49.534;6.378;2023-03-21T13:24:18;10.07;;;4.45;;
53775;SDS011;44276;49.534;6.378;2023-03-21T13:27:01;8.50;;;3.72;;
53775;SDS011;44276;49.534;6.378;2023-03-21T13:29:33;6.70;;;3.60;;
53775;SDS011;44276;49.534;6.378;2023-03-21T13:32:19;7.10;;;4.25;;
53775;SDS011;44276;49.534;6.378;2023-03-21T13:34:54;4.55;;;3.35;;
53775;SDS011;44276;49.534;6.378;2023-03-21T13:37:25;9.68;;;4.10;;
53775;SDS011;44276;49.534;6.378;2023-03-21T13:39:59;6.63;;;4.05;;
53775;SDS011;44276;49.534;6.378;2023-03-21T13:42:41;6.75;;;4.18;;
53775;SDS011;44276;49.534;6.378;2023-03-21T13:47:54;10.68;;;3.75;;
53775;SDS011;44276;49.534;6.378;2023-03-21T13:50:26;6.57;;;3.15;;
53775;SDS011;44276;49.534;6.378;2023-03-21T13:53:15;7.95;;;3.75;;
53775;SDS011;44276;49.534;6.378;2023-03-21T13:56:00;6.22;;;3.85;;
53775;SDS011;44276;49.534;6.378;2023-03-21T13:58:50;6.47;;;3.35;;
53775;SDS011;44276;49.534;6.378;2023-03-21T14:01:28;5.63;;;3.70;;
53775;SDS011;44276;49.534;6.378;2023-03-21T14:04:08;7.22;;;3.83;;
53775;SDS011;44276;49.534;6.378;2023-03-21T14:06:48;8.48;;;3.95;;
53775;SDS011;44276;49.534;6.378;2023-03-21T14:09:26;6.07;;;4.15;;
53775;SDS011;44276;49.534;6.378;2023-03-21T14:12:00;9.70;;;4.78;;
53775;SDS011;44276;49.534;6.378;2023-03-21T14:14:36;8.23;;;4.60;;
53775;SDS011;44276;49.534;6.378;2023-03-21T14:17:12;7.40;;;3.95;;
53775;SDS011;44276;49.534;6.378;2023-03-21T14:19:43;8.45;;;4.18;;
53775;SDS011;44276;49.534;6.378;2023-03-21T14:22:13;7.63;;;4.10;;
53775;SDS011;44276;49.534;6.378;2023-03-21T14:24:45;5.68;;;3.88;;
53775;SDS011;44276;49.534;6.378;2023-03-21T14:27:16;6.93;;;4.20;;
53775;SDS011;44276;49.534;6.378;2023-03-21T14:29:52;10.05;;;3.80;;
53775;SDS011;44276;49.534;6.378;2023-03-21T14:32:22;5.57;;;3.67;;
53775;SDS011;44276;49.534;6.378;2023-03-21T14:34:56;8.88;;;5.65;;
53775;SDS011;44276;49.534;6.378;2023-03-21T14:37:29;9.50;;;4.88;;
53775;SDS011;44276;49.534;6.378;2023-03-21T14:40:01;6.05;;;4.13;;
53775;SDS011;44276;49.534;6.378;2023-03-21T14:42:35;8.30;;;4.05;;
53775;SDS011;44276;49.534;6.378;2023-03-21T14:45:14;6.80;;;3.60;;
53775;SDS011;44276;49.534;6.378;2023-03-21T14:47:56;7.20;;;3.55;;
53775;SDS011;44276;49.534;6.378;2023-03-21T14:50:35;5.78;;;3.80;;
53775;SDS011;44276;49.534;6.378;2023-03-21T14:53:13;5.47;;;3.38;;
53775;SDS011;44276;49.534;6.378;2023-03-21T14:55:53;6.20;;;3.50;;
53775;SDS011;44276;49.534;6.378;2023-03-21T14:58:28;5.28;;;3.38;;
53775;SDS011;44276;49.534;6.378;2023-03-21T15:01:04;8.60;;;4.50;;
53775;SDS011;44276;49.534;6.378;2023-03-21T15:03:42;22.88;;;3.92;;
53775;SDS011;44276;49.534;6.378;2023-03-21T15:06:13;6.00;;;3.20;;
53775;SDS011;44276;49.534;6.378;2023-03-21T15:08:52;10.93;;;3.38;;
53775;SDS011;44276;49.534;6.378;2023-03-21T15:11:27;6.53;;;4.00;;
53775;SDS011;44276;49.534;6.378;2023-03-21T15:13:58;6.70;;;3.33;;
53775;SDS011;44276;49.534;6.378;2023-03-21T15:16:29;6.63;;;3.63;;
53775;SDS011;44276;49.534;6.378;2023-03-21T15:18:59;6.38;;;3.35;;
53775;SDS011;44276;49.534;6.378;2023-03-21T15:21:33;8.10;;;4.22;;
53775;SDS011;44276;49.534;6.378;2023-03-21T15:24:10;8.10;;;4.88;;
53775;SDS011;44276;49.534;6.378;2023-03-21T15:26:44;6.20;;;3.15;;
53775;SDS011;44276;49.534;6.378;2023-03-21T15:29:15;6.60;;;3.88;;
53775;SDS011;44276;49.534;6.378;2023-03-21T15:31:45;6.63;;;3.63;;
53775;SDS011;44276;49.534;6.378;2023-03-21T15:34:18;4.05;;;2.95;;
53775;SDS011;44276;49.534;6.378;2023-03-21T15:36:55;13.40;;;4.78;;
53775;SDS011;44276;49.534;6.378;2023-03-21T15:39:27;7.07;;;3.28;;
53775;SDS011;44276;49.534;6.378;2023-03-21T15:41:57;4.60;;;2.92;;
53775;SDS011;44276;49.534;6.378;2023-03-21T15:44:28;7.20;;;4.03;;
53775;SDS011;44276;49.534;6.378;2023-03-21T15:46:57;5.57;;;3.35;;
53775;SDS011;44276;49.534;6.378;2023-03-21T15:49:26;6.40;;;3.28;;
53775;SDS011;44276;49.534;6.378;2023-03-21T15:52:00;5.15;;;2.78;;